Time;durP1;ratioP1;P1;durP2;ratioP2;P2;SDS_P1;SDS_P2;PMS_P1;PMS_P2;Temp;Humidity;BMP_temperature;BMP_pressure;BME280_temperature;BME280_humidity;BME280_pressure;Samples;Min_cycle;Max_cycle;Signal;HPM_P1;HPM_P2
2022/06/29 00:01:25;;;;;;;6.10;4.97;;;18.70;92.20;;;;;;4918506;28;101777;-72
2022/06/29 00:03:52;;;;;;;5.00;4.63;;;18.70;92.30;;;;;;4919306;28;99009;-71
2022/06/29 00:06:19;;;;;;;5.00;4.05;;;18.70;92.40;;;;;;4919349;28;98573;-72
2022/06/29 00:08:46;;;;;;;4.45;3.70;;;18.60;92.50;;;;;;4934630;28;98647;-72
2022/06/29 00:11:13;;;;;;;6.90;5.35;;;18.60;92.70;;;;;;4934017;28;102648;-72
2022/06/29 00:13:40;;;;;;;9.13;4.07;;;18.60;92.90;;;;;;4934542;28;99755;-72
2022/06/29 00:16:07;;;;;;;5.55;4.40;;;18.50;93.00;;;;;;4935263;28;98652;-72
2022/06/29 00:18:35;;;;;;;5.82;3.67;;;18.50;93.20;;;;;;4934592;28;98600;-72
2022/06/29 00:21:02;;;;;;;6.07;4.20;;;18.50;93.40;;;;;;4935813;28;99391;-72
2022/06/29 00:23:29;;;;;;;5.53;4.18;;;18.50;93.40;;;;;;4934089;28;101472;-72
2022/06/29 00:25:56;;;;;;;6.43;5.10;;;18.40;93.50;;;;;;4935234;28;98966;-72
2022/06/29 00:28:23;;;;;;;6.78;4.00;;;18.40;93.60;;;;;;4936660;28;98420;-72
2022/06/29 00:30:50;;;;;;;5.65;5.25;;;18.30;93.70;;;;;;4935468;28;99230;-72
2022/06/29 00:33:17;;;;;;;5.18;4.72;;;18.30;93.90;;;;;;4934502;28;98850;-72
2022/06/29 00:35:44;;;;;;;7.32;4.60;;;18.30;94.00;;;;;;4935546;28;99191;-72
2022/06/29 00:38:11;;;;;;;6.68;4.60;;;18.30;94.10;;;;;;4933694;28;98554;-71
2022/06/29 00:40:39;;;;;;;5.95;5.47;;;18.30;94.10;;;;;;4933883;28;101987;-72
2022/06/29 00:43:06;;;;;;;8.15;5.32;;;18.20;94.20;;;;;;4934063;28;101405;-72
2022/06/29 00:45:33;;;;;;;7.13;6.38;;;18.20;94.40;;;;;;4935916;28;99161;-72
2022/06/29 00:48:00;;;;;;;6.25;5.57;;;18.20;94.40;;;;;;4918491;28;98700;-72
2022/06/29 00:50:31;;;;;;;8.00;6.00;;;18.20;94.60;;;;;;4934192;28;99512;-72
2022/06/29 00:53:04;;;;;;;8.15;4.82;;;18.10;94.60;;;;;;4935507;28;98951;-72
2022/06/29 00:55:33;;;;;;;7.40;6.53;;;18.10;94.80;;;;;;4934268;28;98692;-72
2022/06/29 00:58:05;;;;;;;6.72;6.13;;;18.10;94.90;;;;;;4935724;28;98488;-72
2022/06/29 01:00:32;;;;;;;6.10;5.57;;;18.10;95.30;;;;;;4933666;28;100397;-72
2022/06/29 01:03:01;;;;;;;7.47;6.43;;;18.00;95.10;;;;;;4935351;28;99738;-72
2022/06/29 01:05:29;;;;;;;5.75;5.25;;;18.10;95.10;;;;;;4934248;28;98675;-72
2022/06/29 01:07:58;;;;;;;7.03;5.85;;;18.00;95.20;;;;;;4917886;28;98697;-72
2022/06/29 01:10:26;;;;;;;6.30;5.70;;;18.00;95.30;;;;;;4933348;28;101756;-72
2022/06/29 01:12:53;;;;;;;8.07;6.75;;;18.00;95.40;;;;;;4934837;28;98811;-72
2022/06/29 01:15:21;;;;;;;6.20;5.68;;;17.90;95.40;;;;;;4933982;28;98564;-72
2022/06/29 01:17:48;;;;;;;5.90;5.40;;;18.00;95.50;;;;;;4934051;28;97779;-71
2022/06/29 01:20:16;;;;;;;6.90;6.20;;;17.90;95.70;;;;;;4933845;28;99478;-72
2022/06/29 01:22:43;;;;;;;7.00;5.85;;;17.90;95.50;;;;;;4933322;28;101573;-72
2022/06/29 01:25:10;;;;;;;6.35;5.80;;;17.90;95.60;;;;;;4934858;28;99258;-72
2022/06/29 01:27:37;;;;;;;7.55;6.82;;;17.90;95.60;;;;;;4934522;28;104170;-72
2022/06/29 01:30:07;;;;;;;7.07;6.38;;;17.80;95.70;;;;;;4933362;28;101845;-71
2022/06/29 01:32:38;;;;;;;7.15;6.47;;;17.80;95.80;;;;;;4933272;28;101577;-72
2022/06/29 01:35:08;;;;;;;7.93;6.60;;;17.80;95.90;;;;;;4935460;28;98510;-72
2022/06/29 01:37:35;;;;;;;6.75;6.18;;;17.80;95.90;;;;;;4933834;28;98661;-72
2022/06/29 01:40:06;;;;;;;7.40;6.70;;;17.70;95.90;;;;;;4934706;28;99460;-72
2022/06/29 01:42:33;;;;;;;7.53;6.72;;;17.70;96.00;;;;;;4935164;28;99077;-72
2022/06/29 01:45:00;;;;;;;6.97;6.25;;;17.70;96.10;;;;;;4933260;28;98590;-72
2022/06/29 01:47:27;;;;;;;7.10;6.28;;;17.70;96.10;;;;;;4935081;28;98554;-72
2022/06/29 01:49:54;;;;;;;7.40;6.72;;;17.70;96.20;;;;;;4933874;28;99920;-72
2022/06/29 01:52:21;;;;;;;7.57;5.72;;;17.60;96.20;;;;;;4932947;28;100873;-72
2022/06/29 01:54:48;;;;;;;8.95;6.38;;;17.60;96.20;;;;;;4934745;28;98488;-72
2022/06/29 01:57:15;;;;;;;8.90;6.38;;;17.60;96.30;;;;;;4934839;28;98498;-72
2022/06/29 01:59:42;;;;;;;7.78;7.18;;;17.60;96.40;;;;;;4934196;28;99248;-72
2022/06/29 02:02:09;;;;;;;9.02;7.05;;;17.50;96.40;;;;;;4934406;28;99038;-72
2022/06/29 02:04:36;;;;;;;8.18;7.30;;;17.50;96.50;;;;;;4934860;28;98417;-71
2022/06/29 02:07:03;;;;;;;6.97;5.95;;;17.50;96.50;;;;;;4933555;28;97879;-72
2022/06/29 02:09:30;;;;;;;8.77;7.82;;;17.50;96.50;;;;;;4933399;28;112442;-72
2022/06/29 02:11:57;;;;;;;11.02;7.72;;;17.50;96.60;;;;;;4932857;28;99012;-72
2022/06/29 02:14:23;;;;;;;7.57;6.97;;;17.50;96.60;;;;;;4932875;28;99224;-72
2022/06/29 02:16:50;;;;;;;9.23;6.70;;;17.50;96.70;;;;;;4933036;28;98629;-72
2022/06/29 02:19:17;;;;;;;8.40;7.70;;;17.50;96.70;;;;;;4934328;28;99414;-72
2022/06/29 02:21:44;;;;;;;7.55;6.85;;;17.40;96.60;;;;;;4933883;28;99138;-72
2022/06/29 02:24:11;;;;;;;8.45;7.65;;;17.40;96.70;;;;;;4933262;28;98654;-71
2022/06/29 02:26:38;;;;;;;8.52;7.63;;;17.40;96.70;;;;;;4933159;28;98491;-72
2022/06/29 02:29:05;;;;;;;8.65;6.95;;;17.40;96.80;;;;;;4916637;28;99329;-72
2022/06/29 02:37:03;;;;;;;7.65;6.85;;;17.30;96.90;;;;;;4932600;28;98979;-72
2022/06/29 02:39:30;;;;;;;7.90;7.22;;;17.30;97.00;;;;;;4933384;28;100015;-72
2022/06/29 02:41:57;;;;;;;8.18;7.38;;;17.30;97.00;;;;;;4932059;28;102461;-72
2022/06/29 02:44:24;;;;;;;10.18;7.63;;;17.30;97.00;;;;;;4917138;28;98458;-72
2022/06/29 02:46:51;;;;;;;8.75;7.10;;;17.20;97.00;;;;;;4932742;28;98999;-72
2022/06/29 02:49:17;;;;;;;9.85;8.45;;;17.20;97.00;;;;;;4933672;28;99219;-72
2022/06/29 02:51:44;;;;;;;9.25;8.23;;;17.20;97.10;;;;;;4933682;28;99038;-72
2022/06/29 02:54:11;;;;;;;8.95;8.02;;;17.20;97.10;;;;;;4934030;28;98570;-72
2022/06/29 02:56:39;;;;;;;9.57;7.20;;;17.20;97.10;;;;;;4934280;28;97770;-72
2022/06/29 02:59:06;;;;;;;7.82;7.13;;;17.10;97.20;;;;;;4933268;28;99392;-72
2022/06/29 03:01:33;;;;;;;8.13;7.32;;;17.10;97.30;;;;;;4931866;28;99013;-71
2022/06/29 03:03:59;;;;;;;8.68;7.78;;;17.10;97.30;;;;;;4931801;28;99325;-72
2022/06/29 03:06:26;;;;;;;8.82;7.97;;;17.10;97.30;;;;;;4933854;28;98504;-72
2022/06/29 03:08:53;;;;;;;10.73;9.48;;;17.10;97.40;;;;;;4931592;28;99330;-72
2022/06/29 03:11:20;;;;;;;10.18;9.18;;;17.10;97.50;;;;;;4931993;28;103958;-72
2022/06/29 03:13:47;;;;;;;9.98;9.05;;;17.00;97.50;;;;;;4933775;28;98542;-72
2022/06/29 03:16:14;;;;;;;9.40;8.35;;;17.00;97.80;;;;;;4932269;28;98606;-71
2022/06/29 03:18:41;;;;;;;8.45;7.72;;;17.00;97.60;;;;;;4933338;28;99211;-72
2022/06/29 03:21:08;;;;;;;11.35;9.32;;;17.00;97.60;;;;;;4933604;28;99023;-72
2022/06/29 03:23:35;;;;;;;9.95;8.95;;;17.00;97.70;;;;;;4932457;28;98534;-72
2022/06/29 03:26:02;;;;;;;9.65;8.73;;;16.90;97.80;;;;;;4933340;28;98500;-71
2022/06/29 03:28:29;;;;;;;11.38;10.40;;;16.90;97.80;;;;;;4931784;28;100069;-72
2022/06/29 03:30:56;;;;;;;10.95;9.52;;;16.90;97.90;;;;;;4932685;28;99826;-72
2022/06/29 03:33:23;;;;;;;10.55;9.50;;;16.90;97.90;;;;;;4931526;28;101883;-72
2022/06/29 03:35:50;;;;;;;9.70;8.80;;;16.90;97.90;;;;;;4933525;28;98440;-72
2022/06/29 03:38:17;;;;;;;11.00;8.52;;;16.90;97.90;;;;;;4933302;28;99199;-72
2022/06/29 03:40:43;;;;;;;11.25;10.35;;;16.90;97.90;;;;;;4933003;28;99137;-72
2022/06/29 03:43:11;;;;;;;10.30;9.40;;;16.90;97.90;;;;;;4932711;28;98571;-72
2022/06/29 03:45:38;;;;;;;14.68;9.57;;;17.00;98.00;;;;;;4933804;28;97809;-72
2022/06/29 03:48:05;;;;;;;10.30;9.45;;;17.00;97.90;;;;;;4932706;28;99934;-72
2022/06/29 03:50:32;;;;;;;9.40;8.60;;;17.00;97.90;;;;;;4931662;28;99050;-72
2022/06/29 03:52:59;;;;;;;11.07;9.68;;;17.00;97.90;;;;;;4932678;28;99327;-72
2022/06/29 03:55:26;;;;;;;9.20;8.45;;;17.10;97.90;;;;;;4915937;28;98574;-72
2022/06/29 03:57:53;;;;;;;10.88;9.98;;;17.20;97.90;;;;;;4915701;28;99488;-72
2022/06/29 04:00:20;;;;;;;9.40;8.70;;;17.50;97.80;;;;;;4914613;28;101771;-71
2022/06/29 04:02:47;;;;;;;8.95;8.07;;;17.80;97.30;;;;;;4931921;28;98847;-72
2022/06/29 04:05:14;;;;;;;9.13;7.43;;;18.10;96.90;;;;;;4933050;28;98524;-72
2022/06/29 04:07:41;;;;;;;9.98;9.18;;;18.40;96.40;;;;;;4932933;28;99317;-72
2022/06/29 04:10:08;;;;;;;10.75;9.68;;;18.60;95.80;;;;;;4932553;28;98843;-72
2022/06/29 04:12:36;;;;;;;9.68;8.68;;;18.70;95.50;;;;;;4933311;28;98575;-71
2022/06/29 04:15:05;;;;;;;10.10;9.30;;;18.70;95.30;;;;;;4934771;28;99173;-72
2022/06/29 04:17:32;;;;;;;10.23;8.50;;;18.60;95.30;;;;;;4934243;28;102530;-72
2022/06/29 04:19:59;;;;;;;9.10;8.25;;;18.50;95.20;;;;;;4935682;28;99816;-71
2022/06/29 04:22:27;;;;;;;9.85;9.05;;;18.40;95.20;;;;;;4936528;28;98484;-72
2022/06/29 04:24:54;;;;;;;8.70;8.00;;;18.40;95.20;;;;;;4936310;28;98577;-72
2022/06/29 04:27:21;;;;;;;8.77;8.05;;;18.40;95.20;;;;;;4935470;28;99369;-72
2022/06/29 04:29:48;;;;;;;11.38;10.40;;;18.40;95.20;;;;;;4934736;28;99093;-71
2022/06/29 04:32:16;;;;;;;9.50;8.77;;;18.30;95.20;;;;;;4934031;28;98551;-72
2022/06/29 04:34:43;;;;;;;9.85;7.72;;;18.40;95.20;;;;;;4935231;28;97909;-72
2022/06/29 04:37:10;;;;;;;8.80;8.10;;;18.40;95.00;;;;;;4934471;28;99345;-71
2022/06/29 04:39:37;;;;;;;9.95;9.15;;;18.50;95.00;;;;;;4934165;28;101528;-72
2022/06/29 04:42:04;;;;;;;9.45;8.60;;;18.50;94.80;;;;;;4935401;28;99241;-71
2022/06/29 04:44:31;;;;;;;8.30;7.63;;;18.60;94.80;;;;;;4934577;28;98518;-71
2022/06/29 04:46:58;;;;;;;8.30;7.40;;;18.60;94.70;;;;;;4935691;28;99367;-72
2022/06/29 04:49:25;;;;;;;8.32;7.78;;;18.70;94.50;;;;;;4935228;28;99117;-72
2022/06/29 04:51:52;;;;;;;8.40;7.70;;;18.80;94.20;;;;;;4934552;28;98769;-74
2022/06/29 04:54:19;;;;;;;8.75;7.88;;;18.80;94.00;;;;;;4933623;28;106987;-74
2022/06/29 04:56:46;;;;;;;7.72;6.95;;;18.90;93.90;;;;;;4917944;28;102014;-74
2022/06/29 04:59:13;;;;;;;7.85;7.15;;;19.00;93.70;;;;;;4935593;28;99053;-74
2022/06/29 05:01:41;;;;;;;8.60;7.95;;;19.10;93.40;;;;;;4935656;28;98514;-73
2022/06/29 05:04:08;;;;;;;7.32;6.75;;;19.20;93.30;;;;;;4934388;28;99303;-74
2022/06/29 05:06:35;;;;;;;8.48;7.93;;;19.30;93.20;;;;;;4934974;28;99968;-74
2022/06/29 05:09:02;;;;;;;8.40;7.70;;;19.30;93.10;;;;;;4917330;28;100799;-74
2022/06/29 05:11:29;;;;;;;8.73;7.70;;;19.40;92.80;;;;;;4934580;28;98545;-74
2022/06/29 05:13:56;;;;;;;7.40;6.72;;;19.60;92.50;;;;;;4935426;28;98515;-74
2022/06/29 05:16:23;;;;;;;9.23;7.07;;;19.60;92.30;;;;;;4933765;28;99138;-74
2022/06/29 05:18:50;;;;;;;8.57;7.72;;;19.70;92.10;;;;;;4933769;28;101482;-74
2022/06/29 05:21:19;;;;;;;7.47;6.63;;;19.80;92.00;;;;;;4933799;28;98503;-72
2022/06/29 05:23:47;;;;;;;7.55;6.93;;;19.90;92.10;;;;;;4933829;28;97854;-72
2022/06/29 05:26:14;;;;;;;7.60;7.03;;;20.00;91.80;;;;;;4934772;28;99235;-72
2022/06/29 05:28:41;;;;;;;6.85;6.32;;;20.10;91.70;;;;;;4935126;28;99064;-72
2022/06/29 05:31:08;;;;;;;6.70;6.20;;;20.30;91.40;;;;;;4934818;28;99239;-72
2022/06/29 05:33:38;;;;;;;8.38;7.68;;;20.40;91.20;;;;;;4935078;28;98651;-72
2022/06/29 05:36:07;;;;;;;8.27;7.57;;;20.50;91.10;;;;;;4934467;28;99520;-72
2022/06/29 05:38:35;;;;;;;8.95;6.47;;;20.70;90.90;;;;;;4934737;28;99079;-72
2022/06/29 05:41:03;;;;;;;7.85;7.15;;;20.80;90.60;;;;;;4917762;28;98518;-72
2022/06/29 05:43:30;;;;;;;6.22;5.72;;;21.00;90.40;;;;;;4934762;28;98571;-72
2022/06/29 05:45:58;;;;;;;7.32;6.72;;;21.20;90.10;;;;;;4933428;28;101791;-72
2022/06/29 05:48:25;;;;;;;7.00;6.15;;;21.20;89.20;;;;;;4934621;28;100029;-72
2022/06/29 05:50:53;;;;;;;6.90;5.45;;;21.20;88.70;;;;;;4935036;28;99069;-72
2022/06/29 05:53:20;;;;;;;6.93;6.20;;;21.30;88.60;;;;;;4934635;28;98539;-72
2022/06/29 05:55:47;;;;;;;7.25;6.63;;;21.40;87.70;;;;;;4932908;28;100334;-72
2022/06/29 05:58:18;;;;;;;6.30;5.75;;;21.40;87.10;;;;;;4934176;28;99754;-72
2022/06/29 06:00:47;;;;;;;5.45;4.95;;;21.30;86.30;;;;;;4933482;28;98839;-72
2022/06/29 06:03:14;;;;;;;7.45;6.80;;;21.30;87.20;;;;;;4934240;28;98484;-72
2022/06/29 06:05:41;;;;;;;6.43;5.75;;;21.30;87.70;;;;;;4933055;28;101766;-72
2022/06/29 06:08:08;;;;;;;5.88;5.25;;;21.30;87.50;;;;;;4916815;28;101594;-72
2022/06/29 06:10:35;;;;;;;6.97;6.47;;;21.30;87.40;;;;;;4932912;28;98455;-72
2022/06/29 06:13:02;;;;;;;5.60;5.10;;;21.40;87.30;;;;;;4933710;28;97768;-72
2022/06/29 06:15:29;;;;;;;5.85;5.45;;;21.50;87.40;;;;;;4932718;28;99413;-72
2022/06/29 06:17:56;;;;;;;5.82;5.43;;;21.50;87.50;;;;;;4932787;28;99183;-72
2022/06/29 06:20:23;;;;;;;5.75;5.25;;;21.50;86.90;;;;;;4932882;28;99380;-72
2022/06/29 06:22:50;;;;;;;5.53;5.03;;;21.50;86.60;;;;;;4934355;28;98488;-72
2022/06/29 06:25:17;;;;;;;5.85;5.35;;;21.50;86.30;;;;;;4932358;28;100270;-72
2022/06/29 06:27:44;;;;;;;5.72;5.20;;;21.50;86.30;;;;;;4932723;28;101748;-72
2022/06/29 06:30:11;;;;;;;7.57;6.43;;;21.50;86.30;;;;;;4934375;28;98562;-72
2022/06/29 06:32:38;;;;;;;5.20;4.78;;;21.60;86.40;;;;;;4932998;28;98541;-72
2022/06/29 06:35:06;;;;;;;5.63;4.80;;;21.60;86.30;;;;;;4931814;28;99246;-72
2022/06/29 06:37:33;;;;;;;5.05;4.65;;;21.70;86.40;;;;;;4916766;28;99012;-72
2022/06/29 06:42:45;;;;;;;7.40;4.97;;;21.80;86.20;;;;;;4934059;28;98566;-72
2022/06/29 06:45:12;;;;;;;6.15;5.55;;;21.80;85.60;;;;;;4915896;28;102555;-72
2022/06/29 06:47:39;;;;;;;4.45;4.05;;;21.90;84.80;;;;;;4932151;28;100854;-72
2022/06/29 06:50:07;;;;;;;5.93;5.53;;;22.00;84.30;;;;;;4932706;28;99137;-72
2022/06/29 06:52:34;;;;;;;4.63;4.32;;;22.20;84.70;;;;;;4932315;28;98531;-72
2022/06/29 06:55:01;;;;;;;5.30;4.65;;;22.60;84.20;;;;;;4933620;28;99503;-72
2022/06/29 06:57:28;;;;;;;4.15;3.95;;;22.90;83.50;;;;;;4916253;28;99307;-72
2022/06/29 06:59:55;;;;;;;8.25;5.72;;;23.10;82.80;;;;;;4932334;28;98524;-72
2022/06/29 07:02:22;;;;;;;5.15;4.30;;;23.20;82.40;;;;;;4932541;28;97853;-72
2022/06/29 07:04:49;;;;;;;4.63;4.22;;;23.20;82.10;;;;;;4932370;28;99212;-72
2022/06/29 07:07:16;;;;;;;4.43;3.72;;;23.20;82.30;;;;;;4932063;28;101535;-72
2022/06/29 07:09:43;;;;;;;4.60;4.20;;;23.30;82.30;;;;;;4931711;28;99350;-72
2022/06/29 07:12:10;;;;;;;4.45;4.15;;;23.20;82.00;;;;;;4932235;28;98649;-72
2022/06/29 07:14:37;;;;;;;5.38;3.97;;;23.30;82.10;;;;;;4931794;28;99324;-72
2022/06/29 07:17:04;;;;;;;3.60;3.30;;;23.20;81.30;;;;;;4932352;28;99280;-72
2022/06/29 07:19:31;;;;;;;6.03;4.93;;;23.20;80.10;;;;;;4931860;28;105172;-72
2022/06/29 07:21:58;;;;;;;4.63;4.07;;;23.30;80.30;;;;;;4933774;28;98546;-72
2022/06/29 07:24:25;;;;;;;3.75;3.40;;;23.30;80.40;;;;;;4899597;28;101972;-72
2022/06/29 07:26:52;;;;;;;2.83;2.58;;;23.40;80.30;;;;;;4932343;28;99017;-72
2022/06/29 07:29:19;;;;;;;2.83;2.50;;;23.40;79.30;;;;;;4932546;28;98581;-72
2022/06/29 07:31:46;;;;;;;3.15;2.58;;;23.40;78.50;;;;;;4931710;28;98633;-72
2022/06/29 07:34:13;;;;;;;6.03;3.72;;;23.50;78.50;;;;;;4932582;28;99973;-72
2022/06/29 07:36:40;;;;;;;3.08;2.88;;;23.60;78.00;;;;;;4931548;28;102460;-72
2022/06/29 07:39:07;;;;;;;4.72;4.32;;;23.60;77.10;;;;;;4933606;28;98458;-72
2022/06/29 07:41:36;;;;;;;3.53;3.17;;;23.70;77.50;;;;;;4931852;28;98600;-72
2022/06/29 07:44:06;;;;;;;4.65;2.70;;;23.70;77.20;;;;;;4931743;28;99383;-72
2022/06/29 07:46:34;;;;;;;2.85;2.65;;;23.90;77.50;;;;;;4900919;28;100924;-72
2022/06/29 07:49:01;;;;;;;4.95;4.15;;;24.00;77.60;;;;;;4935597;28;98579;-72
2022/06/29 07:51:28;;;;;;;3.63;3.40;;;24.10;77.40;;;;;;4919269;28;97882;-72
2022/06/29 07:53:55;;;;;;;5.07;2.85;;;24.30;76.70;;;;;;4934965;28;99307;-72
2022/06/29 07:56:22;;;;;;;4.10;2.30;;;24.40;75.50;;;;;;4936271;28;101341;-72
2022/06/29 07:58:52;;;;;;;2.63;2.42;;;24.50;75.50;;;;;;4934880;28;99344;-72
2022/06/29 08:01:19;;;;;;;4.20;3.80;;;24.60;75.90;;;;;;4919280;28;98783;-72
2022/06/29 08:03:46;;;;;;;2.88;2.58;;;24.70;75.70;;;;;;4935925;28;99456;-72
2022/06/29 08:06:15;;;;;;;3.67;2.72;;;24.70;75.20;;;;;;4935926;28;99072;-72
2022/06/29 08:08:43;;;;;;;3.60;3.40;;;24.90;74.90;;;;;;4936170;28;99405;-72
2022/06/29 08:11:10;;;;;;;2.97;2.63;;;25.10;74.70;;;;;;4936619;28;98426;-72
2022/06/29 08:13:40;;;;;;;3.95;3.75;;;25.60;73.30;;;;;;4934467;28;101809;-72
2022/06/29 08:16:08;;;;;;;4.00;2.53;;;26.50;69.80;;;;;;4936145;28;99043;-72
2022/06/29 08:18:36;;;;;;;3.38;3.15;;;27.70;65.50;;;;;;4934850;28;98622;-72
2022/06/29 08:21:03;;;;;;;2.33;2.13;;;28.80;60.90;;;;;;4936337;28;98506;-72
2022/06/29 08:23:31;;;;;;;2.65;1.80;;;29.90;57.80;;;;;;4935322;28;100118;-72
2022/06/29 08:25:58;;;;;;;2.80;2.60;;;31.10;56.80;;;;;;4934733;28;99859;-72
2022/06/29 08:28:45;;;;;;;2.42;2.22;;;32.20;53.40;;;;;;4934365;28;99474;-72
2022/06/29 08:31:12;;;;;;;2.00;1.90;;;33.00;49.50;;;;;;4934839;28;98501;-73
2022/06/29 08:33:39;;;;;;;3.58;3.28;;;33.70;46.80;;;;;;4935617;28;99297;-72
2022/06/29 08:36:06;;;;;;;2.78;2.58;;;34.30;46.20;;;;;;4935634;28;99085;-73
2022/06/29 08:38:33;;;;;;;2.47;2.13;;;34.80;44.30;;;;;;4934801;28;98595;-72
2022/06/29 08:41:00;;;;;;;2.63;1.80;;;35.40;43.80;;;;;;4936518;28;98272;-72
2022/06/29 08:43:27;;;;;;;3.05;2.95;;;35.90;42.40;;;;;;4934448;28;99128;-73
2022/06/29 08:45:55;;;;;;;4.93;2.50;;;36.20;40.30;;;;;;4935029;28;106503;-73
2022/06/29 08:48:22;;;;;;;2.00;1.80;;;36.40;40.40;;;;;;4934500;28;99827;-73
2022/06/29 08:50:52;;;;;;;2.35;2.25;;;36.50;40.20;;;;;;4935572;28;98531;-73
2022/06/29 08:53:20;;;;;;;3.10;2.90;;;36.90;40.10;;;;;;4934162;28;99518;-73
2022/06/29 08:55:49;;;;;;;2.38;2.28;;;37.10;39.70;;;;;;4933933;28;98978;-73
2022/06/29 08:58:21;;;;;;;3.35;2.97;;;37.30;39.20;;;;;;4933417;28;98594;-72
2022/06/29 09:00:49;;;;;;;3.08;2.78;;;37.20;37.90;;;;;;4934546;28;98611;-73
2022/06/29 09:03:18;;;;;;;2.63;2.15;;;36.90;38.30;;;;;;4933848;28;101726;-73
2022/06/29 09:05:50;;;;;;;3.28;3.08;;;37.00;38.60;;;;;;4934190;28;101474;-73
2022/06/29 09:08:18;;;;;;;2.40;2.20;;;37.10;38.20;;;;;;4934489;28;98555;-73
2022/06/29 09:10:51;;;;;;;4.03;3.47;;;37.10;38.60;;;;;;4933834;28;98580;-72
2022/06/29 09:13:20;;;;;;;2.33;2.22;;;37.20;38.30;;;;;;4935014;28;100057;-73
2022/06/29 09:15:55;;;;;;;4.78;2.67;;;37.10;38.30;;;;;;4933408;28;102453;-72
2022/06/29 09:18:32;;;;;;;3.53;1.98;;;36.90;38.80;;;;;;4919205;28;99145;-72
2022/06/29 09:21:04;;;;;;;4.18;2.42;;;36.50;38.90;;;;;;4935552;28;98457;-74
2022/06/29 09:23:34;;;;;;;2.60;2.40;;;35.80;39.50;;;;;;4933621;28;101831;-74
2022/06/29 09:26:02;;;;;;;1.92;1.80;;;34.90;40.10;;;;;;4933801;28;98699;-74
2022/06/29 09:28:31;;;;;;;2.88;2.58;;;34.20;41.20;;;;;;4933851;28;98503;-73
2022/06/29 09:30:59;;;;;;;2.67;2.47;;;33.60;41.90;;;;;;4935390;28;97757;-73
2022/06/29 09:33:28;;;;;;;2.50;1.98;;;33.10;42.40;;;;;;4934701;28;99272;-73
2022/06/29 09:36:05;;;;;;;3.17;2.70;;;32.70;42.70;;;;;;4934039;28;106804;-74
2022/06/29 09:38:33;;;;;;;2.30;2.10;;;32.40;43.10;;;;;;4933570;28;99315;-73
2022/06/29 09:41:12;;;;;;;3.53;3.17;;;32.00;43.30;;;;;;4917290;28;101461;-73
2022/06/29 09:43:44;;;;;;;2.95;2.20;;;31.90;43.60;;;;;;4934776;28;99242;-73
2022/06/29 09:46:16;;;;;;;2.88;2.47;;;31.60;43.20;;;;;;4933346;28;100114;-73
2022/06/29 09:48:44;;;;;;;3.78;2.78;;;31.50;43.90;;;;;;4933291;28;98648;-73
2022/06/29 09:51:30;;;;;;;2.65;2.45;;;31.30;43.60;;;;;;4934967;28;98473;-73
2022/06/29 09:54:06;;;;;;;2.10;2.00;;;31.10;44.40;;;;;;4934512;28;99162;-73
2022/06/29 09:56:34;;;;;;;3.10;2.20;;;31.00;45.10;;;;;;4934806;28;98795;-73
2022/06/29 09:59:04;;;;;;;2.88;2.47;;;30.80;44.20;;;;;;4917275;28;98573;-73
2022/06/29 10:04:18;;;;;;;3.83;3.55;;;30.50;44.70;;;;;;4934305;28;100264;-73
2022/06/29 10:06:45;;;;;;;2.55;2.42;;;30.40;45.20;;;;;;4932698;28;102256;-73
2022/06/29 10:09:13;;;;;;;2.42;2.22;;;30.30;46.00;;;;;;4933029;28;99101;-73
2022/06/29 10:14:45;;;;;;;2.95;2.75;;;30.30;45.20;;;;;;4934186;28;99265;-73
2022/06/29 10:17:36;;;;;;;5.53;2.30;;;30.40;46.20;;;;;;4934357;28;99025;-73
2022/06/29 10:20:06;;;;;;;3.25;2.10;;;30.60;45.00;;;;;;4916905;28;98527;-73
2022/06/29 10:22:33;;;;;;;3.30;3.10;;;30.60;44.70;;;;;;4933486;28;97826;-73
2022/06/29 10:25:05;;;;;;;3.10;2.88;;;30.50;45.20;;;;;;4932677;28;102031;-73
2022/06/29 10:27:32;;;;;;;3.70;2.78;;;30.40;44.80;;;;;;4916838;28;101574;-73
2022/06/29 10:30:18;;;;;;;2.42;2.00;;;30.40;45.30;;;;;;4932036;28;99893;-73
2022/06/29 10:32:46;;;;;;;3.78;3.47;;;30.50;45.50;;;;;;4933272;28;98725;-73
2022/06/29 10:35:13;;;;;;;3.00;2.80;;;30.40;44.90;;;;;;4916215;28;112485;-73
2022/06/29 10:37:48;;;;;;;2.75;2.55;;;30.50;44.90;;;;;;4933797;28;99060;-73
2022/06/29 10:40:20;;;;;;;2.35;2.15;;;30.70;45.50;;;;;;4933955;28;98452;-73
2022/06/29 10:45:35;;;;;;;5.53;2.42;;;31.00;44.90;;;;;;4933814;28;102782;-73
2022/06/29 10:48:06;;;;;;;3.63;3.30;;;31.10;42.80;;;;;;4932397;28;101569;-73
2022/06/29 10:50:35;;;;;;;6.85;2.53;;;31.30;43.40;;;;;;4934363;28;98558;-73
2022/06/29 10:53:06;;;;;;;10.25;3.67;;;31.50;43.80;;;;;;4932625;28;98609;-73
2022/06/29 10:55:35;;;;;;;2.42;2.22;;;31.60;43.00;;;;;;4933375;28;100138;-73
2022/06/29 10:58:03;;;;;;;3.08;2.10;;;31.80;42.60;;;;;;4933157;28;99780;-73
2022/06/29 11:00:52;;;;;;;4.22;3.42;;;31.90;42.30;;;;;;4933998;28;98514;-73
2022/06/29 11:03:22;;;;;;;2.35;2.15;;;31.80;42.80;;;;;;4916577;28;99226;-73
2022/06/29 11:16:58;;;;;;;2.90;2.70;;;31.60;43.20;;;;;;4933298;28;99368;-74
2022/06/29 11:19:34;;;;;;;3.97;3.67;;;31.60;43.10;;;;;;4932242;28;99069;-73
2022/06/29 11:22:15;;;;;;;3.90;3.33;;;31.80;43.20;;;;;;4937951;28;99274;-73
2022/06/29 11:24:57;;;;;;;4.43;4.13;;;31.90;43.50;;;;;;4938835;28;98580;-73
2022/06/29 11:27:38;;;;;;;3.27;2.97;;;32.10;43.60;;;;;;4939649;28;99360;-73
2022/06/29 11:30:13;;;;;;;3.30;2.95;;;32.20;43.50;;;;;;4939498;28;99104;-73
2022/06/29 11:32:47;;;;;;;5.45;3.10;;;32.20;43.90;;;;;;4939940;28;98566;-73
2022/06/29 11:35:17;;;;;;;3.15;2.95;;;32.40;44.10;;;;;;4955750;28;98621;-73
2022/06/29 11:37:52;;;;;;;4.10;3.53;;;32.50;44.00;;;;;;4958890;28;99266;-73
2022/06/29 11:40:35;;;;;;;3.78;3.47;;;32.70;43.60;;;;;;4958261;28;99037;-73
2022/06/29 11:43:09;;;;;;;3.88;3.50;;;32.60;43.90;;;;;;4959219;28;98544;-73
2022/06/29 11:45:38;;;;;;;3.40;3.13;;;32.50;44.80;;;;;;4959497;28;98580;-73
2022/06/29 11:48:26;;;;;;;4.50;4.15;;;32.50;45.60;;;;;;4958341;28;99971;-73
2022/06/29 11:50:56;;;;;;;4.00;3.70;;;32.60;45.60;;;;;;4959088;28;99850;-73
2022/06/29 11:53:54;;;;;;;5.53;3.13;;;32.40;45.80;;;;;;4957877;28;98572;-73
2022/06/29 11:56:23;;;;;;;5.65;5.22;;;32.40;45.70;;;;;;4958226;28;98652;-73
2022/06/29 11:58:52;;;;;;;3.60;3.30;;;32.20;46.00;;;;;;4958602;28;103190;-73
2022/06/29 12:01:21;;;;;;;5.32;4.93;;;32.20;46.40;;;;;;4957518;28;98923;-73
2022/06/29 12:03:55;;;;;;;5.10;3.80;;;32.20;46.50;;;;;;4959184;28;98978;-73
2022/06/29 12:06:25;;;;;;;4.40;4.00;;;32.20;46.30;;;;;;4958569;28;97862;-73
2022/06/29 12:08:54;;;;;;;4.45;4.15;;;32.20;47.10;;;;;;4957353;28;101903;-73
2022/06/29 12:11:22;;;;;;;5.82;5.40;;;32.30;47.00;;;;;;4958943;28;98991;-74
2022/06/29 12:13:49;;;;;;;5.00;4.40;;;32.50;47.30;;;;;;4957422;28;99168;-74
2022/06/29 12:16:18;;;;;;;4.65;4.22;;;32.50;47.10;;;;;;4957255;28;98629;-74
2022/06/29 12:18:45;;;;;;;5.32;4.47;;;32.50;47.00;;;;;;4958638;28;99340;-75
2022/06/29 12:21:12;;;;;;;4.50;4.20;;;32.40;47.30;;;;;;4958347;28;98985;-75
2022/06/29 12:23:39;;;;;;;4.38;4.05;;;32.30;47.40;;;;;;4957708;28;98546;-74
2022/06/29 12:26:06;;;;;;;5.53;3.65;;;32.30;47.40;;;;;;4952394;28;98542;-76
2022/06/29 12:28:33;;;;;;;4.88;4.57;;;32.30;47.60;;;;;;4938369;28;101786;-76
2022/06/29 12:31:00;;;;;;;3.97;3.67;;;32.50;47.60;;;;;;4957634;28;99012;-76
2022/06/29 12:33:28;;;;;;;5.65;4.60;;;32.60;47.50;;;;;;4955353;28;98796;-74
2022/06/29 12:35:55;;;;;;;5.57;4.60;;;32.60;47.10;;;;;;4955438;28;98619;-75
2022/06/29 12:38:22;;;;;;;5.20;4.70;;;32.50;47.30;;;;;;4936997;28;102548;-74
2022/06/29 12:40:49;;;;;;;4.35;3.95;;;32.40;47.60;;;;;;4953846;28;99682;-74
2022/06/29 12:43:16;;;;;;;5.80;5.32;;;32.40;47.30;;;;;;4937715;28;98554;-74
2022/06/29 12:45:45;;;;;;;5.03;4.70;;;32.20;48.10;;;;;;4955606;28;98475;-74
2022/06/29 12:48:12;;;;;;;5.55;5.13;;;32.30;48.20;;;;;;4953857;28;99229;-74
2022/06/29 12:50:39;;;;;;;5.03;4.63;;;32.20;48.40;;;;;;4953734;28;100097;-74
2022/06/29 12:53:09;;;;;;;5.32;4.93;;;32.20;48.60;;;;;;4953592;28;99095;-74
2022/06/29 12:55:36;;;;;;;4.63;4.28;;;32.30;48.70;;;;;;4955579;28;97815;-74
2022/06/29 12:58:03;;;;;;;5.00;4.43;;;32.40;49.20;;;;;;4953616;28;99361;-74
2022/06/29 13:00:30;;;;;;;4.93;4.43;;;32.50;48.60;;;;;;4953659;28;98918;-74
2022/06/29 13:02:57;;;;;;;4.53;4.10;;;32.60;48.40;;;;;;4927253;28;100210;-76
2022/06/29 13:05:24;;;;;;;5.25;4.10;;;32.60;48.40;;;;;;4930698;28;99740;-74
2022/06/29 13:07:51;;;;;;;4.50;4.10;;;32.70;48.70;;;;;;4928051;28;99466;-75
2022/06/29 13:10:18;;;;;;;4.43;4.03;;;32.90;48.40;;;;;;4930450;28;99055;-75
2022/06/29 13:12:45;;;;;;;4.97;4.55;;;32.90;48.10;;;;;;4932254;28;98945;-75
2022/06/29 13:15:12;;;;;;;5.32;4.82;;;32.80;47.50;;;;;;4913596;28;98663;-75
2022/06/29 13:17:39;;;;;;;6.97;4.00;;;32.90;47.90;;;;;;4923348;28;99280;-76